Begues, Spain
Current Conditions -  °F | °C
As of 11:30 PM on Sunday 21 Dec 2014 (Local Time) from LEBL Reporting Station
Clear Clear  
Wind Chill: 38°   Ceiling: Unl
Heat Index: 45°   Visibility: 6mi
Dew Point: 39°   Wind: 13mph
Humidity: 81%   Direction: 330°NNW
Pressure: 30.48"   Gusts: NA
Location:  41.33°N, 1.93°E
Report Text: LEBL 212230Z 33011KT CAVOK 07/04 Q1032 NOSIG
Loading
Personal Weather Stations






























Interactive Weather Map New forecast layout! Learn more

10-Day Weather Forecast

Advertisements
Track Severe Weather on mobile